Time;durP1;ratioP1;P1;durP2;ratioP2;P2;SDS_P1;SDS_P2;PMS_P1;PMS_P2;Temp;Humidity;BMP_temperature;BMP_pressure;BME280_temperature;BME280_humidity;BME280_pressure;Samples;Min_cycle;Max_cycle;Signal;HPM_P1;HPM_P2
2022/06/25 00:02:56;;;;;;;;;9.00;9.00;;;;;24.70;44.99;98338.91;6239320;27;98694;-71
2022/06/25 00:06:00;;;;;;;;;9.00;9.00;;;;;24.71;45.06;98329.50;6244740;27;97365;-71
2022/06/25 00:09:03;;;;;;;;;10.40;10.00;;;;;24.68;45.29;98333.72;6244212;27;96588;-72
2022/06/25 00:15:28;;;;;;;;;9.00;9.00;;;;;24.51;45.54;98331.00;6256768;27;97242;-71
2022/06/25 00:18:33;;;;;;;;;11.25;10.00;;;;;24.44;45.70;98323.22;6261007;27;98371;-71
2022/06/25 00:21:36;;;;;;;;;9.00;9.00;;;;;24.42;46.08;98327.44;6261873;27;97430;-71
2022/06/25 00:24:39;;;;;;;;;11.00;10.00;;;;;24.28;46.09;98316.59;6261353;27;96509;-72
2022/06/25 00:27:44;;;;;;;;;11.00;10.00;;;;;24.22;46.14;98323.41;6243508;27;97705;-71
2022/06/25 00:30:47;;;;;;;;;10.00;10.00;;;;;24.14;46.82;98321.44;6242135;27;100127;-71
2022/06/25 00:33:52;;;;;;;;;11.50;11.50;;;;;24.12;46.63;98323.69;6228659;27;97958;-71
2022/06/25 00:36:55;;;;;;;;;12.00;10.00;;;;;24.12;46.50;98327.25;6255382;27;97527;-71
2022/06/25 00:39:59;;;;;;;;;11.00;10.60;;;;;24.12;46.55;98318.19;6228825;27;98554;-71
2022/06/25 00:43:03;;;;;;;;;11.00;9.25;;;;;24.07;46.86;98318.34;6222295;27;96919;-71
2022/06/25 00:46:06;;;;;;;;;11.00;10.00;;;;;24.00;46.62;98318.81;6244721;27;97423;-71
2022/06/25 00:49:11;;;;;;;;;11.00;11.00;;;;;23.96;47.11;98317.03;6226157;27;98389;-72
2022/06/25 00:52:17;;;;;;;;;10.60;10.40;;;;;23.99;46.73;98324.66;6242441;27;97447;-71
2022/06/25 00:55:23;;;;;;;;;12.60;11.00;;;;;23.83;47.48;98318.00;6259008;27;96747;-71
2022/06/25 00:58:32;;;;;;;;;10.60;10.00;;;;;23.72;47.39;98325.75;6239611;27;97265;-71
2022/06/25 01:01:36;;;;;;;;;9.00;9.00;;;;;23.59;48.06;98326.69;6246679;27;96710;-72
2022/06/25 01:04:41;;;;;;;;;10.60;9.00;;;;;23.56;47.81;98316.31;6246913;27;97150;-72
2022/06/25 01:07:47;;;;;;;;;9.60;9.00;;;;;23.48;48.72;98320.69;6247203;27;96570;-72
2022/06/25 01:10:50;;;;;;;;;10.00;10.00;;;;;23.42;48.97;98313.66;6264005;27;96970;-72
2022/06/25 01:13:54;;;;;;;;;10.00;10.00;;;;;23.33;49.10;98319.16;6230941;27;99298;-72
2022/06/25 01:16:58;;;;;;;;;10.60;9.60;;;;;23.17;48.97;98295.13;6245754;27;99546;-72
2022/06/25 01:20:05;;;;;;;;;10.00;9.00;;;;;23.12;49.02;98289.78;6244836;27;97647;-71
2022/06/25 01:23:10;;;;;;;;;10.60;10.00;;;;;23.11;49.08;98299.19;6265300;27;97572;-72
2022/06/25 01:26:14;;;;;;;;;10.00;10.00;;;;;23.25;48.98;98311.69;6265622;27;96551;-72
2022/06/25 01:29:17;;;;;;;;;9.00;9.00;;;;;23.21;49.11;98318.13;6263731;27;96639;-73
2022/06/25 01:32:23;;;;;;;;;11.00;10.00;;;;;23.20;49.17;98316.50;6247334;27;96702;-72
2022/06/25 01:35:26;;;;;;;;;8.20;8.20;;;;;23.19;48.86;98323.94;6239959;27;97525;-73
2022/06/25 01:38:31;;;;;;;;;12.00;11.00;;;;;23.20;49.20;98316.50;6247124;27;96674;-72
2022/06/25 01:41:37;;;;;;;;;9.00;9.00;;;;;23.04;49.42;98315.31;6246770;27;97179;-72
2022/06/25 01:44:40;;;;;;;;;11.40;10.00;;;;;23.11;49.17;98324.72;6247154;27;96508;-72
2022/06/25 01:47:43;;;;;;;;;9.00;9.00;;;;;23.11;49.27;98324.72;6254960;27;96619;-73
2022/06/25 01:50:48;;;;;;;;;11.00;10.80;;;;;23.12;49.86;98325.50;6231310;27;96512;-72
2022/06/25 01:53:53;;;;;;;;;10.00;10.00;;;;;23.16;48.96;98321.84;6249528;27;97625;-72
2022/06/25 01:56:56;;;;;;;;;10.00;9.00;;;;;23.16;49.36;98329.28;6228244;27;96682;-72
2022/06/25 02:00:00;;;;;;;;;9.40;9.00;;;;;23.14;49.09;98326.84;6245163;27;96752;-72
2022/06/25 02:03:04;;;;;;;;;10.00;8.20;;;;;23.14;49.21;98329.59;6237710;28;96730;-71
2022/06/25 02:06:08;;;;;;;;;9.60;9.60;;;;;23.11;49.43;98329.41;6239028;28;97559;-72
2022/06/25 02:09:13;;;;;;;;;11.00;10.00;;;;;23.14;49.05;98340.59;6239276;28;96604;-72
2022/06/25 02:12:16;;;;;;;;;9.00;8.60;;;;;23.15;49.18;98336.72;6238252;27;97428;-73
2022/06/25 02:15:19;;;;;;;;;10.75;10.00;;;;;23.15;49.19;98338.66;6220611;28;97493;-73
2022/06/25 02:18:23;;;;;;;;;9.80;8.00;;;;;23.11;49.18;98341.22;6232381;28;96894;-72
2022/06/25 02:21:27;;;;;;;;;11.00;9.50;;;;;23.09;49.21;98337.97;6231596;28;97770;-73
2022/06/25 02:24:33;;;;;;;;;9.00;8.75;;;;;23.13;48.88;98343.66;6234695;28;96575;-72
2022/06/25 02:27:37;;;;;;;;;9.00;8.40;;;;;23.13;49.25;98343.66;6234836;28;97534;-72
2022/06/25 02:30:40;;;;;;;;;10.50;10.00;;;;;23.05;48.86;98326.00;6217536;28;97011;-72
2022/06/25 02:33:44;;;;;;;;;9.00;9.00;;;;;23.14;49.20;98340.59;6229431;28;96901;-72
2022/06/25 02:36:49;;;;;;;;;11.60;11.00;;;;;23.13;48.85;98349.13;6216629;28;97892;-72
2022/06/25 02:39:55;;;;;;;;;9.00;9.00;;;;;23.10;49.15;98353.34;6242203;27;96424;-72
2022/06/25 02:43:01;;;;;;;;;10.40;9.60;;;;;23.09;49.06;98343.47;6233828;28;97431;-72
2022/06/25 02:46:10;;;;;;;;;9.00;8.00;;;;;23.10;49.17;98350.59;6230490;28;98025;-73
2022/06/25 02:49:14;;;;;;;;;10.50;10.00;;;;;23.12;48.53;98353.00;6221855;28;96527;-72
2022/06/25 02:52:18;;;;;;;;;9.80;9.80;;;;;23.12;48.78;98356.56;6238801;28;97564;-72
2022/06/25 02:58:54;;;;;;;;;10.00;10.00;;;;;23.13;49.28;98360.13;6235389;28;98646;-73
2022/06/25 02:58:56;;;;;;;;;10.00;9.00;;;;;23.08;49.04;98352.84;6216521;28;97117;-72
2022/06/25 03:02:35;;;;;;;;;12.25;11.00;;;;;23.03;49.34;98352.97;6242735;27;96607;-71
2022/06/25 03:05:38;;;;;;;;;9.00;8.00;;;;;22.99;49.73;98354.75;6221282;27;98363;-71
2022/06/25 03:08:42;;;;;;;;;11.00;9.20;;;;;22.95;50.02;98352.94;6254183;27;98380;-72
2022/06/25 03:11:47;;;;;;;;;10.00;9.00;;;;;22.93;49.98;98350.50;6220522;27;100132;-72
2022/06/25 03:14:51;;;;;;;;;11.00;11.00;;;;;22.95;50.05;98353.75;6238463;27;97233;-72
2022/06/25 03:17:57;;;;;;;;;9.60;9.60;;;;;22.94;50.23;98345.81;6242222;27;96860;-72
2022/06/25 03:21:28;;;;;;;;;9.40;9.40;;;;;23.03;50.25;98357.66;6222355;27;99884;-71
2022/06/25 03:24:41;;;;;;;;;11.00;10.00;;;;;23.07;49.97;98364.97;6213661;27;97936;-72
2022/06/25 03:27:46;;;;;;;;;9.60;9.00;;;;;23.12;50.14;98353.81;6250185;27;97295;-72
2022/06/25 03:30:51;;;;;;;;;9.50;9.00;;;;;23.19;50.10;98351.44;6227307;27;99482;-72
2022/06/25 03:33:56;;;;;;;;;10.40;9.00;;;;;23.24;49.98;98353.25;6240532;27;96669;-72
2022/06/25 03:37:18;;;;;;;;;9.00;8.50;;;;;23.26;49.77;98359.25;6206999;28;97742;-72
2022/06/25 03:40:22;;;;;;;;;11.25;10.00;;;;;23.38;49.09;98366.88;6259436;27;97075;-72
2022/06/25 03:43:32;;;;;;;;;10.00;9.00;;;;;23.45;49.37;98362.59;6208806;27;99077;-71
2022/06/25 03:46:37;;;;;;;;;12.00;12.00;;;;;23.55;48.83;98369.75;6241561;27;97431;-71
2022/06/25 03:49:40;;;;;;;;;13.50;12.00;;;;;23.61;48.56;98376.69;6229306;27;98711;-71
2022/06/25 03:52:52;;;;;;;;;9.00;9.00;;;;;23.67;48.70;98381.75;6214011;27;97759;-72
2022/06/25 03:55:57;;;;;;;;;11.00;10.00;;;;;23.77;48.46;98388.91;6236731;28;96531;-72
2022/06/25 03:59:09;;;;;;;;;11.00;11.00;;;;;23.86;48.15;98399.94;6242734;27;96530;-72
2022/06/25 04:02:12;;;;;;;;;11.00;11.00;;;;;23.93;47.97;98392.03;6223839;27;98438;-72
2022/06/25 04:05:36;;;;;;;;;10.00;10.00;;;;;24.00;47.57;98398.66;6238613;27;98060;-72
2022/06/25 04:08:50;;;;;;;;;9.80;9.80;;;;;24.08;47.44;98388.81;6237703;27;96914;-71
2022/06/25 04:11:56;;;;;;;;;10.00;9.50;;;;;24.20;47.63;98390.94;6226170;27;98097;-73
2022/06/25 04:15:01;;;;;;;;;10.40;10.00;;;;;24.28;47.55;98390.16;6261945;27;97029;-71
2022/06/25 04:18:05;;;;;;;;;9.00;9.00;;;;;24.05;47.11;98329.66;6236293;27;97869;-71
2022/06/25 04:21:09;;;;;;;;;10.00;9.50;;;;;24.53;46.83;98383.84;6240927;27;96984;-73
2022/06/25 04:24:15;;;;;;;;;10.60;9.00;;;;;24.53;46.64;98378.34;6252729;27;98287;-72
2022/06/25 04:30:38;;;;;;;;;12.00;10.00;;;;;24.71;45.94;98384.63;6245796;27;97777;-73
2022/06/25 04:33:41;;;;;;;;;11.40;10.40;;;;;24.74;45.90;98382.03;6233424;27;96990;-72
2022/06/25 04:36:45;;;;;;;;;10.80;9.00;;;;;24.79;45.84;98383.81;6243229;27;96733;-73
2022/06/25 04:39:59;;;;;;;;;9.00;9.00;;;;;24.80;45.66;98396.47;6241897;27;97954;-72
2022/06/25 04:43:03;;;;;;;;;9.20;8.80;;;;;24.84;45.64;98397.41;6238266;27;96774;-73
2022/06/25 04:46:09;;;;;;;;;10.00;9.00;;;;;24.92;45.23;98402.94;6233542;27;97487;-72
2022/06/25 04:49:16;;;;;;;;;10.25;10.00;;;;;25.01;45.53;98400.19;6240249;27;96911;-72
2022/06/25 04:52:21;;;;;;;;;10.00;8.80;;;;;25.05;45.20;98398.41;6225861;27;98277;-73
2022/06/25 04:55:24;;;;;;;;;9.75;8.75;;;;;24.56;45.15;98308.78;6246618;27;96397;-72
2022/06/25 04:58:29;;;;;;;;;10.00;10.00;;;;;25.27;44.92;98417.47;6242904;27;97404;-73
2022/06/25 05:01:39;;;;;;;;;10.00;9.50;;;;;25.40;44.93;98413.72;6255652;27;98091;-73
2022/06/25 05:04:43;;;;;;;;;9.60;9.00;;;;;25.51;44.76;98419.66;6224842;27;97465;-72
2022/06/25 05:07:46;;;;;;;;;11.00;9.00;;;;;25.59;44.33;98418.88;6270467;27;96664;-72
2022/06/25 05:10:50;;;;;;;;;10.00;9.00;;;;;25.71;44.67;98410.66;6258866;27;96553;-73
2022/06/25 05:13:53;;;;;;;;;9.00;8.00;;;;;25.80;44.41;98410.66;6261999;27;97083;-72
2022/06/25 05:16:58;;;;;;;;;10.00;9.00;;;;;25.94;44.26;98407.66;6221245;27;97867;-72
2022/06/25 05:20:02;;;;;;;;;10.00;9.00;;;;;26.01;43.67;98414.25;6232124;27;97173;-72
2022/06/25 05:23:05;;;;;;;;;10.00;10.00;;;;;26.12;43.58;98406.38;6224645;27;97041;-72
2022/06/25 05:26:09;;;;;;;;;9.20;8.60;;;;;26.13;42.88;98411.59;6237765;27;97194;-73
2022/06/25 05:29:13;;;;;;;;;11.00;10.60;;;;;26.20;43.48;98408.28;6243414;27;96893;-72
2022/06/25 05:32:17;;;;;;;;;9.50;9.50;;;;;26.18;43.28;98411.38;6225684;27;98457;-71
2022/06/25 05:35:21;;;;;;;;;10.00;9.00;;;;;26.27;43.80;98417.69;6247756;27;98176;-72
2022/06/25 05:38:25;;;;;;;;;9.00;9.00;;;;;26.42;43.15;98409.94;6230767;27;97032;-72
2022/06/25 05:41:28;;;;;;;;;8.20;8.00;;;;;26.53;42.89;98416.69;6247275;27;98666;-71
2022/06/25 05:44:31;;;;;;;;;11.00;9.00;;;;;26.66;43.22;98413.66;6247507;27;97090;-70
2022/06/25 05:47:36;;;;;;;;;10.00;9.00;;;;;26.87;42.87;98419.19;6248673;27;97281;-70
2022/06/25 05:50:40;;;;;;;;;7.00;7.00;;;;;27.07;42.43;98423.06;6264114;27;97167;-71
2022/06/25 05:53:43;;;;;;;;;9.20;8.20;;;;;27.20;41.55;98413.66;6246914;27;98786;-71
2022/06/25 05:56:47;;;;;;;;;11.00;10.00;;;;;27.41;41.56;98411.63;6244866;27;97140;-70
2022/06/25 05:59:50;;;;;;;;;10.00;9.00;;;;;27.53;41.70;98414.44;6244649;27;98017;-71
2022/06/25 06:02:55;;;;;;;;;12.00;10.00;;;;;27.51;41.05;98399.31;6264255;27;97600;-69
2022/06/25 06:05:59;;;;;;;;;9.60;9.00;;;;;27.44;40.95;98405.38;6229116;27;96603;-71
2022/06/25 06:09:02;;;;;;;;;10.00;9.40;;;;;27.54;41.49;98404.16;6235946;27;97156;-70
2022/06/25 06:12:06;;;;;;;;;9.75;9.00;;;;;27.72;41.13;98408.31;6262177;27;96660;-70
2022/06/25 06:15:10;;;;;;;;;10.00;9.00;;;;;27.92;41.10;98412.13;6262481;27;97460;-70
2022/06/25 06:18:15;;;;;;;;;11.00;9.00;;;;;28.13;40.49;98407.31;6248934;27;97389;-70
2022/06/25 06:21:19;;;;;;;;;11.00;10.25;;;;;28.32;40.25;98413.03;6261393;27;96648;-70
2022/06/25 06:24:23;;;;;;;;;9.00;8.60;;;;;28.34;39.65;98416.28;6235776;27;98372;-70
2022/06/25 06:27:26;;;;;;;;;10.00;10.00;;;;;28.37;39.14;98415.56;6246054;27;97041;-70
2022/06/25 06:30:29;;;;;;;;;10.00;9.00;;;;;28.52;39.43;98416.81;6242589;27;99580;-70
2022/06/25 06:33:40;;;;;;;;;10.00;10.00;;;;;28.73;39.57;98414.69;6220935;27;98036;-70
2022/06/25 06:36:43;;;;;;;;;9.00;9.00;;;;;28.90;38.64;98421.91;6257721;27;96551;-71
2022/06/25 06:39:46;;;;;;;;;9.00;8.00;;;;;29.11;38.59;98428.06;6262807;27;97489;-70
2022/06/25 06:42:51;;;;;;;;;10.00;10.00;;;;;29.23;38.57;98425.19;6258376;27;98023;-70
2022/06/25 06:45:54;;;;;;;;;8.60;8.40;;;;;29.48;38.68;98422.31;6263055;27;96477;-71
2022/06/25 06:48:59;;;;;;;;;9.40;8.40;;;;;29.67;37.73;98437.09;6257572;27;96837;-71
2022/06/25 06:52:02;;;;;;;;;10.40;10.40;;;;;29.87;37.80;98432.44;6247074;27;97484;-72
2022/06/25 06:55:06;;;;;;;;;9.40;8.40;;;;;29.94;36.71;98438.22;6232794;27;97415;-70
2022/06/25 06:58:10;;;;;;;;;10.00;9.00;;;;;29.90;36.99;98437.31;6253809;27;97913;-70
2022/06/25 07:01:13;;;;;;;;;10.00;9.60;;;;;29.97;37.41;98431.09;6261983;27;96568;-72
2022/06/25 07:04:18;;;;;;;;;8.00;8.00;;;;;30.09;37.54;98434.59;6251018;27;96626;-71
2022/06/25 07:07:22;;;;;;;;;9.60;8.60;;;;;30.37;37.65;98428.88;6255416;27;97551;-69
2022/06/25 07:10:25;;;;;;;;;9.00;8.20;;;;;30.66;36.49;98427.56;6243509;27;96788;-69
2022/06/25 07:13:28;;;;;;;;;10.00;9.00;;;;;30.95;36.09;98420.59;6237702;27;96720;-72
2022/06/25 07:16:33;;;;;;;;;9.00;9.00;;;;;31.14;35.88;98425.38;6243970;27;96703;-71
2022/06/25 07:19:38;;;;;;;;;11.40;9.00;;;;;31.35;35.88;98425.78;6258054;27;97906;-71
2022/06/25 07:22:42;;;;;;;;;9.00;9.00;;;;;31.52;35.09;98430.84;6256801;27;96892;-70
2022/06/25 07:25:45;;;;;;;;;10.00;8.00;;;;;31.73;34.96;98424.88;6243539;27;99404;-71
2022/06/25 07:28:49;;;;;;;;;8.75;8.75;;;;;31.87;34.19;98418.72;6261629;27;97010;-69
2022/06/25 07:31:52;;;;;;;;;8.60;8.60;;;;;32.01;33.83;98425.34;6261784;27;96746;-71
2022/06/25 07:34:57;;;;;;;;;9.00;8.00;;;;;32.16;34.80;98423.59;6261718;27;97417;-70
2022/06/25 07:38:00;;;;;;;;;8.00;7.00;;;;;32.27;32.69;98427.34;6238591;27;97360;-70
2022/06/25 07:41:05;;;;;;;;;8.00;8.00;;;;;32.32;32.96;98423.44;6257049;27;96859;-71
2022/06/25 07:44:09;;;;;;;;;10.00;10.00;;;;;32.41;33.77;98421.97;6261789;27;97020;-71
2022/06/25 07:47:13;;;;;;;;;9.00;8.00;;;;;32.44;32.23;98415.66;6234962;27;98427;-71
2022/06/25 07:53:41;;;;;;;;;7.75;7.75;;;;;32.58;32.20;98421.44;6212321;27;99750;-70
2022/06/25 07:56:44;;;;;;;;;8.00;8.00;;;;;32.63;31.79;98418.34;6211915;27;99617;-69
2022/06/25 07:59:47;;;;;;;;;8.60;8.40;;;;;32.76;31.52;98423.66;6261792;27;97462;-70
2022/06/25 08:02:51;;;;;;;;;7.00;6.00;;;;;32.75;30.17;98422.06;6225825;27;98394;-69
2022/06/25 08:05:58;;;;;;;;;5.40;5.40;;;;;32.77;29.98;98420.50;6208948;27;97208;-70
2022/06/25 08:09:01;;;;;;;;;5.00;5.00;;;;;32.67;28.78;98416.41;6258954;27;96589;-70
2022/06/25 08:12:05;;;;;;;;;7.00;7.00;;;;;32.92;28.95;98416.72;6261243;27;96571;-71
2022/06/25 08:15:09;;;;;;;;;5.50;5.50;;;;;33.08;29.23;98408.94;6258236;27;97092;-69
2022/06/25 08:18:13;;;;;;;;;5.80;5.80;;;;;33.19;29.27;98417.44;6242800;27;99880;-69
2022/06/25 08:21:18;;;;;;;;;6.00;6.00;;;;;33.13;27.75;98410.56;6254233;27;98095;-71
2022/06/25 08:24:21;;;;;;;;;5.00;5.00;;;;;33.02;26.69;98418.03;6238143;27;96907;-71
2022/06/25 08:27:25;;;;;;;;;5.25;5.00;;;;;33.18;27.23;98441.00;6260655;27;97240;-69
2022/06/25 08:30:31;;;;;;;;;5.00;5.00;;;;;33.30;27.01;98426.72;6261931;27;97610;-70
2022/06/25 08:33:35;;;;;;;;;4.00;4.00;;;;;33.35;26.57;98431.97;6261603;27;96691;-70
2022/06/25 08:36:40;;;;;;;;;4.60;4.60;;;;;33.44;25.76;98426.88;6250310;27;96624;-70
2022/06/25 08:39:43;;;;;;;;;4.60;4.60;;;;;33.67;25.69;98425.91;6256649;27;97913;-70
2022/06/25 08:42:48;;;;;;;;;6.00;5.00;;;;;33.81;26.37;98429.66;6240526;27;96694;-69
2022/06/25 08:45:51;;;;;;;;;5.00;5.00;;;;;33.87;26.45;98428.09;6262069;27;97540;-70
2022/06/25 08:48:56;;;;;;;;;6.00;5.20;;;;;34.15;26.55;98432.31;6252651;27;96579;-70
2022/06/25 08:52:04;;;;;;;;;6.00;5.00;;;;;34.32;25.60;98428.84;6252270;27;96571;-69
2022/06/25 08:55:09;;;;;;;;;6.00;5.00;;;;;34.57;25.60;98427.00;6258111;27;96670;-71
2022/06/25 08:58:13;;;;;;;;;7.00;7.00;;;;;34.89;26.68;98421.59;6254611;27;96714;-70
2022/06/25 09:01:17;;;;;;;;;7.00;7.00;;;;;35.14;25.77;98424.44;6260296;27;97474;-70
2022/06/25 09:04:20;;;;;;;;;6.00;6.00;;;;;35.14;25.26;98425.25;6252693;27;96771;-70
2022/06/25 09:07:25;;;;;;;;;5.33;5.00;;;;;35.39;25.65;98421.75;6261691;27;97606;-70
2022/06/25 09:10:30;;;;;;;;;6.00;5.00;;;;;35.55;25.24;98424.97;6245797;27;98373;-70
2022/06/25 09:13:33;;;;;;;;;7.00;7.00;;;;;35.38;24.55;98420.16;6246720;27;97901;-70
2022/06/25 09:16:37;;;;;;;;;7.00;6.00;;;;;35.22;24.24;98426.13;6266019;27;96385;-71
2022/06/25 09:19:42;;;;;;;;;5.00;5.00;;;;;34.64;25.20;98415.84;6257308;27;97522;-73
2022/06/25 09:22:58;;;;;;;;;5.20;5.00;;;;;34.67;26.05;98419.84;6261365;27;97516;-70
2022/06/25 09:26:05;;;;;;;;;5.40;5.40;;;;;34.77;25.66;98424.72;6239328;27;98631;-71
2022/06/25 09:29:09;;;;;;;;;6.00;5.00;;;;;35.07;24.81;98422.44;6265572;27;97062;-70
2022/06/25 09:32:13;;;;;;;;;4.67;4.00;;;;;35.09;23.32;98431.25;6251680;27;97487;-69
2022/06/25 09:35:34;;;;;;;;;4.00;4.00;;;;;34.61;22.27;98424.22;6251444;27;98106;-71
2022/06/25 09:38:49;;;;;;;;;4.00;4.00;;;;;34.48;22.33;98436.94;6260910;27;97491;-71
2022/06/25 09:41:54;;;;;;;;;4.00;4.00;;;;;34.52;22.19;98427.38;6254361;27;97251;-69
2022/06/25 09:45:07;;;;;;;;;6.00;5.00;;;;;34.58;23.52;98419.41;6264727;27;97468;-70
2022/06/25 09:48:18;;;;;;;;;6.00;5.33;;;;;34.78;22.45;98427.16;6244859;27;98642;-70
2022/06/25 09:51:23;;;;;;;;;4.00;4.00;;;;;34.14;22.27;98419.50;6262459;27;97651;-70
2022/06/25 09:54:28;;;;;;;;;4.00;3.60;;;;;34.24;22.48;98430.00;6263316;27;96536;-70
2022/06/25 09:57:33;;;;;;;;;4.00;4.00;;;;;34.57;23.92;98423.41;6243276;27;97742;-68
2022/06/25 10:00:37;;;;;;;;;6.00;6.00;;;;;34.53;22.03;98426.19;6254586;27;96710;-70
2022/06/25 10:03:42;;;;;;;;;5.00;5.00;;;;;34.95;22.17;98417.19;6255984;27;96667;-71
2022/06/25 10:06:52;;;;;;;;;4.00;4.00;;;;;35.35;22.13;98410.53;6255648;27;97649;-71
2022/06/25 10:09:59;;;;;;;;;4.60;4.60;;;;;35.77;22.05;98423.03;6265554;27;96662;-71
2022/06/25 10:13:04;;;;;;;;;4.50;4.50;;;;;35.71;21.05;98419.84;6265519;27;96984;-70
2022/06/25 10:16:08;;;;;;;;;5.00;4.50;;;;;35.89;22.31;98408.59;6264805;27;96372;-70
2022/06/25 10:19:12;;;;;;;;;4.00;4.00;;;;;35.91;20.25;98409.81;6262655;27;96378;-69
2022/06/25 10:22:16;;;;;;;;;5.00;4.60;;;;;36.23;20.66;98415.41;6246556;27;97998;-71
2022/06/25 10:25:26;;;;;;;;;4.00;4.00;;;;;36.52;21.12;98412.53;6253651;27;97806;-70
2022/06/25 10:28:29;;;;;;;;;4.20;4.00;;;;;36.69;20.17;98418.13;6246258;27;96768;-69
2022/06/25 10:31:33;;;;;;;;;5.00;5.00;;;;;36.93;20.63;98399.56;6258475;27;98837;-70
2022/06/25 10:34:36;;;;;;;;;5.40;5.00;;;;;36.89;20.20;98393.97;6259597;27;98183;-69
2022/06/25 10:37:59;;;;;;;;;5.00;5.00;;;;;37.17;20.67;98403.50;6264535;27;96705;-70
2022/06/25 10:44:29;;;;;;;;;6.40;6.00;;;;;37.82;20.09;98399.84;6259784;27;96585;-71
2022/06/25 10:47:38;;;;;;;;;4.67;4.67;;;;;37.86;19.32;98385.72;6259265;27;97527;-71
2022/06/25 10:50:49;;;;;;;;;4.00;4.00;;;;;37.79;18.26;98395.03;6222715;28;97787;-70
2022/06/25 10:53:53;;;;;;;;;4.00;4.00;;;;;37.53;18.26;98393.66;6264413;27;96576;-70
2022/06/25 10:57:00;;;;;;;;;3.60;3.60;;;;;37.56;18.24;98386.38;6262118;27;97400;-70
2022/06/25 11:00:04;;;;;;;;;6.00;5.40;;;;;37.05;18.58;98396.28;6245471;27;96824;-72
2022/06/25 11:03:07;;;;;;;;;5.00;5.00;;;;;36.96;18.57;98392.31;6250882;27;97587;-71
2022/06/25 11:06:26;;;;;;;;;6.00;6.00;;;;;36.77;18.81;98385.19;6249699;27;97331;-71
2022/06/25 11:09:30;;;;;;;;;5.00;5.00;;;;;37.15;19.36;98383.41;6245816;27;97424;-70
2022/06/25 11:12:35;;;;;;;;;5.00;4.00;;;;;37.22;18.10;98387.00;6246892;27;98374;-71
2022/06/25 11:15:39;;;;;;;;;4.00;4.00;;;;;37.28;19.32;98382.53;6262376;27;96546;-69
2022/06/25 11:18:47;;;;;;;;;5.60;4.60;;;;;37.67;19.68;98379.47;6250512;27;97660;-70
2022/06/25 11:21:52;;;;;;;;;5.40;5.00;;;;;37.24;18.50;98383.78;6254423;27;97098;-69
2022/06/25 11:31:43;;;;;;;;;5.00;5.00;;;;;37.01;19.52;98377.84;6255916;27;97398;-69
2022/06/25 11:34:52;;;;;;;;;5.40;5.00;;;;;36.98;19.12;98376.66;6240616;27;97597;-70
2022/06/25 11:37:55;;;;;;;;;5.20;5.20;;;;;37.19;19.30;98384.22;6260338;27;96701;-70
2022/06/25 11:40:58;;;;;;;;;5.00;4.00;;;;;37.43;19.03;98372.00;6238224;27;96934;-69
2022/06/25 11:44:07;;;;;;;;;5.00;5.00;;;;;37.83;19.47;98366.88;6249676;27;97078;-69
2022/06/25 11:47:12;;;;;;;;;6.00;5.00;;;;;38.37;19.00;98376.38;6247634;27;96661;-70
2022/06/25 11:50:15;;;;;;;;;4.00;4.00;;;;;38.72;17.69;98378.03;6252175;27;97399;-70
2022/06/25 11:53:19;;;;;;;;;5.80;5.80;;;;;38.91;18.72;98383.03;6242120;27;96603;-71
2022/06/25 11:56:22;;;;;;;;;6.00;6.00;;;;;39.17;18.96;98378.66;6236505;27;96698;-70
2022/06/25 11:59:29;;;;;;;;;6.00;6.00;;;;;39.30;17.98;98374.81;6242226;27;97462;-71
2022/06/25 12:02:33;;;;;;;;;5.00;5.00;;;;;39.50;18.53;98371.31;6246928;27;99254;-71
2022/06/25 12:05:36;;;;;;;;;5.00;4.00;;;;;39.67;17.75;98364.59;6236757;27;98417;-70
2022/06/25 12:08:40;;;;;;;;;6.00;5.00;;;;;39.96;18.15;98374.22;6256818;27;97538;-69
2022/06/25 12:11:51;;;;;;;;;6.00;6.00;;;;;40.09;17.79;98361.06;6231146;27;98088;-69
2022/06/25 12:14:59;;;;;;;;;5.00;5.00;;;;;39.87;16.57;98356.25;6241815;27;97832;-71
2022/06/25 12:18:05;;;;;;;;;4.00;4.00;;;;;39.45;17.86;98363.34;6260163;27;98360;-69
2022/06/25 12:21:10;;;;;;;;;5.00;4.00;;;;;39.35;18.17;98362.28;6252609;27;97128;-70
2022/06/25 12:24:15;;;;;;;;;5.80;5.00;;;;;38.67;17.27;98370.84;6257652;27;96677;-70
2022/06/25 12:27:18;;;;;;;;;5.00;5.00;;;;;38.61;18.21;98357.66;6259424;27;97202;-71
2022/06/25 12:30:24;;;;;;;;;4.80;4.80;;;;;38.42;18.74;98359.84;6239362;27;97223;-69
2022/06/25 12:33:29;;;;;;;;;6.00;6.00;;;;;37.84;18.51;98354.38;6239278;27;99575;-71
2022/06/25 12:36:37;;;;;;;;;6.00;6.00;;;;;37.52;19.54;98355.44;6237503;27;96989;-69
2022/06/25 12:39:45;;;;;;;;;6.00;4.60;;;;;37.54;19.40;98357.84;6258373;27;96508;-69
2022/06/25 12:42:54;;;;;;;;;6.00;6.00;;;;;37.68;20.09;98350.09;6258042;27;97967;-70
2022/06/25 12:46:09;;;;;;;;;6.80;6.00;;;;;37.48;18.78;98349.06;6260269;27;97266;-71
2022/06/25 12:49:12;;;;;;;;;6.25;6.00;;;;;37.34;19.41;98351.94;6257811;27;98063;-69
2022/06/25 12:52:24;;;;;;;;;5.00;5.00;;;;;37.59;19.27;98346.97;6212412;27;97608;-70
2022/06/25 12:55:27;;;;;;;;;6.00;6.00;;;;;37.82;19.25;98340.75;6253872;27;97794;-70
2022/06/25 12:58:34;;;;;;;;;4.00;4.00;;;;;38.22;19.15;98344.78;6259936;27;96630;-70
2022/06/25 13:01:39;;;;;;;;;5.00;5.00;;;;;38.52;18.56;98349.69;6232698;27;97231;-70
2022/06/25 13:04:42;;;;;;;;;7.00;6.00;;;;;38.54;19.17;98344.44;6254861;27;96617;-68
2022/06/25 13:07:46;;;;;;;;;6.00;5.25;;;;;38.56;19.71;98339.97;6252859;27;97473;-68
2022/06/25 13:10:49;;;;;;;;;6.00;5.25;;;;;38.46;19.86;98351.41;6256432;27;96662;-69
2022/06/25 13:13:53;;;;;;;;;6.00;5.25;;;;;38.34;19.08;98349.88;6229086;27;96537;-69
2022/06/25 13:16:58;;;;;;;;;6.00;6.00;;;;;38.18;19.70;98341.19;6239065;27;98018;-69
2022/06/25 13:20:02;;;;;;;;;6.60;6.00;;;;;37.57;19.72;98340.97;6255083;27;97078;-69
2022/06/25 13:23:06;;;;;;;;;4.20;4.20;;;;;37.17;19.92;98328.41;6260566;27;97672;-70
2022/06/25 13:26:09;;;;;;;;;6.00;6.00;;;;;36.76;19.85;98333.81;6255633;27;97322;-69
2022/06/25 13:29:13;;;;;;;;;13.00;13.00;;;;;36.44;20.16;98333.16;6240486;27;99854;-69
2022/06/25 13:32:18;;;;;;;;;6.20;6.20;;;;;36.17;20.77;98343.25;6238427;27;98006;-69
2022/06/25 13:35:21;;;;;;;;;5.00;5.00;;;;;36.19;20.61;98343.66;6260873;27;98011;-70
2022/06/25 13:38:25;;;;;;;;;6.00;6.00;;;;;36.12;21.36;98338.81;6261500;27;96648;-70
2022/06/25 13:41:29;;;;;;;;;5.40;5.00;;;;;35.91;21.03;98336.88;6242530;27;97090;-68
2022/06/25 13:44:34;;;;;;;;;7.00;6.80;;;;;35.86;21.58;98340.09;6242698;27;97785;-69
2022/06/25 13:47:39;;;;;;;;;6.00;5.00;;;;;35.90;21.06;98332.47;6242474;27;99434;-69
2022/06/25 13:50:42;;;;;;;;;7.00;6.25;;;;;36.02;20.70;98331.22;6243042;27;97749;-70
2022/06/25 13:53:53;;;;;;;;;6.80;6.00;;;;;36.13;21.56;98328.41;6264302;27;97467;-69
2022/06/25 13:56:57;;;;;;;;;6.00;5.00;;;;;36.16;20.56;98328.44;6264976;27;97432;-70
2022/06/25 14:00:01;;;;;;;;;6.00;5.00;;;;;36.27;20.44;98331.19;6264176;27;96326;-70
2022/06/25 14:03:11;;;;;;;;;5.60;5.00;;;;;36.33;21.48;98329.56;6264866;27;97453;-69
2022/06/25 14:06:15;;;;;;;;;7.00;6.00;;;;;36.41;20.64;98325.53;6250928;27;97042;-70
2022/06/25 14:09:19;;;;;;;;;7.00;6.00;;;;;36.50;20.59;98314.69;6229401;27;97792;-69
2022/06/25 14:12:22;;;;;;;;;5.80;5.20;;;;;36.50;21.29;98311.88;6230238;27;96809;-70
2022/06/25 14:15:25;;;;;;;;;5.40;5.40;;;;;36.32;21.16;98317.53;6246385;27;98361;-70
2022/06/25 14:18:35;;;;;;;;;6.00;6.00;;;;;36.34;21.68;98315.13;6265418;27;97479;-69
2022/06/25 14:21:38;;;;;;;;;6.00;6.00;;;;;36.36;21.63;98311.94;6245839;27;97736;-69
2022/06/25 14:28:04;;;;;;;;;6.00;5.80;;;;;36.30;21.13;98319.16;6246258;27;97777;-70
2022/06/25 14:31:08;;;;;;;;;6.00;5.75;;;;;36.23;20.93;98310.75;6262968;27;97447;-69
2022/06/25 14:34:13;;;;;;;;;6.00;6.00;;;;;36.10;21.90;98318.78;6245549;27;97988;-69
2022/06/25 14:43:58;;;;;;;;;6.00;6.00;;;;;35.81;21.81;98323.66;6241377;27;98192;-69
2022/06/25 14:47:01;;;;;;;;;6.25;5.25;;;;;35.83;21.99;98315.63;6262499;27;97539;-69
2022/06/25 14:50:08;;;;;;;;;6.00;5.25;;;;;35.92;22.22;98309.63;6261718;27;96768;-70
2022/06/25 14:53:11;;;;;;;;;6.00;6.00;;;;;36.07;22.07;98316.00;6260018;27;96591;-70
2022/06/25 14:56:15;;;;;;;;;5.00;5.00;;;;;36.08;21.35;98311.97;6261897;27;96964;-70
2022/06/25 14:59:18;;;;;;;;;6.75;6.00;;;;;36.24;21.94;98312.38;6242642;27;96682;-70